Time;durP1;ratioP1;P1;durP2;ratioP2;P2;SDS_P1;SDS_P2;PMS_P1;PMS_P2;Temp;Humidity;BMP_temperature;BMP_pressure;BME280_temperature;BME280_humidity;BME280_pressure;Samples;Min_cycle;Max_cycle;Signal;HPM_P1;HPM_P2
2023/05/23 00:02:15;;;;;;;;;;;;;;;-144.99;100.00;52195.34;5037795;28;20028;-74
2023/05/23 00:04:43;;;;;;;;;;;;;;;-144.99;100.00;52199.44;5043642;28;19929;-73
2023/05/23 00:07:09;;;;;;;;;;;;;;;-144.99;100.00;52215.75;5047092;28;19941;-72
2023/05/23 00:09:36;;;;;;;;;;;;;;;-144.99;100.00;52166.81;5045620;28;19940;-72
2023/05/23 00:12:03;;;;;;;;;;;;;;;-144.99;100.00;52213.69;5037038;28;19975;-72
2023/05/23 00:14:32;;;;;;;;;;;;;;;-144.99;100.00;52215.75;5034055;28;20376;-72
2023/05/23 00:16:59;;;;;;;;;;;;;;;-144.99;100.00;52199.44;5037564;28;20035;-71
2023/05/23 00:19:27;;;;;;;;;;;;;;;-144.99;100.00;52219.81;5043078;28;20554;-72
2023/05/23 00:21:57;;;;;;;;;;;;;;;-144.99;100.00;52232.03;5031544;28;20312;-72
2023/05/23 00:24:23;;;;;;;;;;;;;;;-144.99;100.00;52227.97;5044903;28;19925;-72
2023/05/23 00:26:50;;;;;;;;;;;;;;;-144.99;100.00;52195.34;5038322;28;19933;-71
2023/05/23 00:29:16;;;;;;;;;;;;;;;-144.99;100.00;52199.44;5046201;28;19932;-73
2023/05/23 00:31:45;;;;;;;;;;;;;;;-144.99;100.00;52223.88;5047301;28;19936;-72
2023/05/23 00:34:11;;;;;;;;;;;;;;;-144.99;100.00;52232.03;5046435;28;20018;-71
2023/05/23 00:36:40;;;;;;;;;;;;;;;-144.99;100.00;52211.66;5049991;28;19978;-72
2023/05/23 00:39:07;;;;;;;;;;;;;;;-144.99;100.00;52215.75;5051142;28;19952;-71
2023/05/23 00:41:34;;;;;;;;;;;;;;;-144.99;100.00;52191.28;5044512;28;19924;-72
2023/05/23 00:44:01;;;;;;;;;;;;;;;-144.99;100.00;52240.19;5056810;28;19954;-71
2023/05/23 00:46:28;;;;;;;;;;;;;;;-144.99;100.00;52232.03;5046178;28;19924;-72
2023/05/23 00:48:55;;;;;;;;;;;;;;;-144.99;100.00;52195.34;5051958;28;19924;-73
2023/05/23 00:51:21;;;;;;;;;;;;;;;-144.99;100.00;52207.59;5054145;28;20418;-72
2023/05/23 00:53:50;;;;;;;;;;;;;;;-144.99;100.00;52234.09;5054636;28;20349;-72
2023/05/23 00:56:16;;;;;;;;;;;;;;;-144.99;100.00;52227.97;5038745;28;19929;-72
2023/05/23 00:58:43;;;;;;;;;;;;;;;-144.99;100.00;52221.84;5044331;28;19960;-72
2023/05/23 01:01:10;;;;;;;;;;;;;;;-144.99;100.00;52260.56;5046095;28;19929;-73
2023/05/23 01:03:36;;;;;;;;;;;;;;;-144.99;100.00;52223.88;5057079;28;20312;-72
2023/05/23 01:06:03;;;;;;;;;;;;;;;-144.99;100.00;52264.66;5042584;28;19936;-71
2023/05/23 01:08:29;;;;;;;;;;;;;;;-144.99;100.00;52240.19;5032691;28;19925;-72
2023/05/23 01:11:01;;;;;;;;;;;;;;;-144.99;100.00;52240.19;5041521;28;19959;-72
2023/05/23 01:13:33;;;;;;;;;;;;;;;-144.99;100.00;52199.44;5044802;28;20186;-72
2023/05/23 01:16:06;;;;;;;;;;;;;;;-144.99;100.00;52248.34;5045082;28;19986;-72
2023/05/23 01:18:37;;;;;;;;;;;;;;;-144.99;100.00;52219.81;5059558;22;19982;-71
2023/05/23 01:21:06;;;;;;;;;;;;;;;-144.99;100.00;52195.34;5051303;28;19940;-71
2023/05/23 01:23:58;;;;;;;;;;;;;;;-144.99;100.00;52223.88;5049660;28;19948;-73
2023/05/23 01:26:33;;;;;;;;;;;;;;;-144.99;100.00;52252.44;5054114;28;19929;-73
2023/05/23 01:29:04;;;;;;;;;;;;;;;-144.99;100.00;52225.94;5047013;28;20405;-71
2023/05/23 01:31:32;;;;;;;;;;;;;;;-144.99;100.00;52227.97;5047274;28;19949;-70
2023/05/23 01:33:59;;;;;;;;;;;;;;;-144.99;100.00;52252.44;5044502;28;19929;-70
2023/05/23 01:36:25;;;;;;;;;;;;;;;-144.99;100.00;52260.56;5038766;28;19936;-69
2023/05/23 01:38:52;;;;;;;;;;;;;;;-144.99;100.00;52207.59;5040858;28;19924;-70
2023/05/23 01:41:19;;;;;;;;;;;;;;;-144.99;100.00;52301.34;5040950;28;19943;-70
2023/05/23 01:43:46;;;;;;;;;;;;;;;-144.99;100.00;52244.28;5046285;28;19924;-70
2023/05/23 01:46:16;;;;;;;;;;;;;;;-144.99;100.00;52276.88;5044018;28;20010;-70
2023/05/23 01:48:43;;;;;;;;;;;;;;;-144.99;100.00;52276.88;5043041;28;19929;-77
2023/05/23 01:51:10;;;;;;;;;;;;;;;-144.99;100.00;52238.16;5056281;28;20069;-75
2023/05/23 01:53:37;;;;;;;;;;;;;;;-144.99;100.00;52285.03;5045467;28;19933;-73
2023/05/23 01:56:03;;;;;;;;;;;;;;;-144.99;100.00;52258.53;5048261;28;20408;-71
2023/05/23 01:58:30;;;;;;;;;;;;;;;-144.99;100.00;52285.03;5043413;28;20059;-73
2023/05/23 02:00:57;;;;;;;;;;;;;;;-144.99;100.00;52287.06;5044476;28;20116;-72
2023/05/23 02:03:25;;;;;;;;;;;;;;;-144.99;100.00;52276.88;5038137;28;19928;-72
2023/05/23 02:05:52;;;;;;;;;;;;;;;-144.99;100.00;52260.56;5047096;28;20047;-72
2023/05/23 02:08:18;;;;;;;;;;;;;;;-144.99;100.00;52268.72;5044009;28;20351;-71
2023/05/23 02:10:45;;;;;;;;;;;;;;;-144.99;100.00;52280.97;5036626;28;19935;-71
2023/05/23 02:13:12;;;;;;;;;;;;;;;-144.99;100.00;52264.66;5044128;28;20258;-70
2023/05/23 02:15:38;;;;;;;;;;;;;;;-144.99;100.00;52280.97;5037397;28;20354;-70
2023/05/23 02:18:05;;;;;;;;;;;;;;;-144.99;100.00;52291.16;5039895;28;20385;-72
2023/05/23 02:20:33;;;;;;;;;;;;;;;-144.99;100.00;52305.41;5038463;28;19929;-71
2023/05/23 02:23:00;;;;;;;;;;;;;;;-144.99;100.00;52270.78;5044819;28;19928;-70
2023/05/23 02:25:27;;;;;;;;;;;;;;;-144.99;100.00;52280.97;5044425;28;20399;-72
2023/05/23 02:27:53;;;;;;;;;;;;;;;-144.99;100.00;52301.34;5039996;28;20240;-72
2023/05/23 02:30:20;;;;;;;;;;;;;;;-144.99;100.00;52301.34;5043430;28;20443;-71
2023/05/23 02:32:46;;;;;;;;;;;;;;;-144.99;100.00;52264.66;5044700;28;19925;-73
2023/05/23 02:35:13;;;;;;;;;;;;;;;-144.99;100.00;52285.03;5041813;28;19925;-72
2023/05/23 02:37:41;;;;;;;;;;;;;;;-144.99;100.00;52280.97;5058170;28;19971;-72
2023/05/23 02:40:09;;;;;;;;;;;;;;;-144.99;100.00;52283.00;5051625;28;19935;-72
2023/05/23 02:42:35;;;;;;;;;;;;;;;-144.99;100.00;52305.41;5047788;28;19978;-73
2023/05/23 02:45:02;;;;;;;;;;;;;;;-144.99;100.00;52297.25;5044533;28;20389;-73
2023/05/23 02:47:29;;;;;;;;;;;;;;;-144.99;100.00;52309.50;5045638;28;19929;-77
2023/05/23 02:49:55;;;;;;;;;;;;;;;-144.99;100.00;52280.97;5048154;28;19932;-72
2023/05/23 02:52:22;;;;;;;;;;;;;;;-144.99;100.00;52305.41;5045849;28;20389;-71
2023/05/23 02:54:50;;;;;;;;;;;;;;;-144.99;100.00;52313.56;5048321;28;19925;-69
2023/05/23 02:57:17;;;;;;;;;;;;;;;-144.99;100.00;52217.78;5051135;28;20357;-72
2023/05/23 02:59:43;;;;;;;;;;;;;;;-144.99;100.00;52236.13;5045741;28;19933;-73
2023/05/23 03:02:10;;;;;;;;;;;;;;;-144.99;100.00;52268.72;5047072;28;20020;-69
2023/05/23 03:04:37;;;;;;;;;;;;;;;-144.99;100.00;52313.56;5050507;28;20301;-69
2023/05/23 03:07:05;;;;;;;;;;;;;;;-144.99;100.00;52276.88;5057294;28;19928;-72
2023/05/23 03:09:32;;;;;;;;;;;;;;;-144.99;100.00;52289.13;5039658;28;19925;-76
2023/05/23 03:12:02;;;;;;;;;;;;;;;-144.99;100.00;52280.97;5039237;28;20548;-71
2023/05/23 03:14:28;;;;;;;;;;;;;;;-144.99;100.00;52276.88;5044682;28;19925;-69
2023/05/23 03:16:55;;;;;;;;;;;;;;;-144.99;100.00;52264.66;5043465;28;20019;-69
2023/05/23 03:19:21;;;;;;;;;;;;;;;-144.99;100.00;52250.38;5047191;28;19932;-69
2023/05/23 03:21:50;;;;;;;;;;;;;;;-144.99;100.00;52254.47;5048052;28;20472;-68
2023/05/23 03:24:16;;;;;;;;;;;;;;;-144.99;100.00;52323.75;5045544;28;20312;-69
2023/05/23 03:26:43;;;;;;;;;;;;;;;-144.99;100.00;52252.44;5039859;28;20248;-68
2023/05/23 03:29:11;;;;;;;;;;;;;;;-144.99;100.00;52272.81;5041266;28;20198;-68
2023/05/23 03:31:38;;;;;;;;;;;;;;;-144.99;100.00;52283.00;5044696;28;20095;-70
2023/05/23 03:34:05;;;;;;;;;;;;;;;-144.99;100.00;52301.34;5043032;28;19924;-73
2023/05/23 03:36:32;;;;;;;;;;;;;;;-144.99;100.00;52293.19;5049986;28;19978;-71
2023/05/23 03:38:59;;;;;;;;;;;;;;;-144.99;100.00;52268.72;5054657;28;19931;-72
2023/05/23 03:41:26;;;;;;;;;;;;;;;-144.99;100.00;52280.97;5043706;28;19932;-68
2023/05/23 03:43:53;;;;;;;;;;;;;;;-144.99;100.00;52285.03;5045510;28;19924;-69
2023/05/23 03:46:21;;;;;;;;;;;;;;;-144.99;100.00;52297.25;5035664;28;20409;-69
2023/05/23 03:48:47;;;;;;;;;;;;;;;-144.99;100.00;52293.19;5043522;28;20187;-69
2023/05/23 03:51:14;;;;;;;;;;;;;;;-144.99;100.00;52289.13;5036872;28;20305;-69
2023/05/23 03:53:40;;;;;;;;;;;;;;;-144.99;100.00;52293.19;5042267;28;19936;-70
2023/05/23 03:56:07;;;;;;;;;;;;;;;-144.99;100.00;52268.72;5038598;28;20366;-72
2023/05/23 03:58:34;;;;;;;;;;;;;;;-144.99;100.00;52305.41;5045097;28;20466;-72
2023/05/23 04:01:01;;;;;;;;;;;;;;;-144.99;100.00;52289.13;5049512;28;19925;-71
2023/05/23 04:03:31;;;;;;;;;;;;;;;-144.99;100.00;52293.19;5047782;28;19931;-73
2023/05/23 04:05:58;;;;;;;;;;;;;;;-144.99;100.00;52305.41;5047825;28;19961;-71
2023/05/23 04:08:24;;;;;;;;;;;;;;;-144.99;100.00;52264.66;5051668;28;19925;-72
2023/05/23 04:10:51;;;;;;;;;;;;;;;-144.99;100.00;52293.19;5050220;28;19931;-73
2023/05/23 04:13:19;;;;;;;;;;;;;;;-144.99;100.00;52260.56;5053049;28;20008;-74
2023/05/23 04:15:46;;;;;;;;;;;;;;;-144.99;100.00;52280.97;5045463;28;20008;-72
2023/05/23 04:18:13;;;;;;;;;;;;;;;-144.99;100.00;52280.97;5051593;28;20271;-71
2023/05/23 04:20:43;;;;;;;;;;;;;;;-144.99;100.00;52285.03;5048038;28;20362;-75
2023/05/23 04:23:10;;;;;;;;;;;;;;;-144.99;100.00;52301.34;5047301;28;20577;-75
2023/05/23 04:25:36;;;;;;;;;;;;;;;-144.99;100.00;52264.66;5039039;28;20398;-71
2023/05/23 04:28:04;;;;;;;;;;;;;;;-144.99;100.00;52291.16;5047927;28;19937;-72
2023/05/23 04:30:31;;;;;;;;;;;;;;;-144.99;100.00;52289.13;5041374;28;20255;-71
2023/05/23 04:32:58;;;;;;;;;;;;;;;-144.99;100.00;52260.56;5043981;28;19925;-71
2023/05/23 04:35:25;;;;;;;;;;;;;;;-144.99;100.00;52260.56;5049560;28;19925;-71
2023/05/23 04:37:55;;;;;;;;;;;;;;;-144.99;100.00;52289.13;5043794;28;19982;-71
2023/05/23 04:40:22;;;;;;;;;;;;;;;-144.99;100.00;52309.50;5054970;28;20054;-72
2023/05/23 04:42:50;;;;;;;;;;;;;;;-144.99;100.00;52291.16;5048282;28;19929;-72
2023/05/23 04:45:18;;;;;;;;;;;;;;;-144.99;100.00;52256.50;5046421;28;19929;-72
2023/05/23 04:47:45;;;;;;;;;;;;;;;-144.99;100.00;52289.13;5043217;28;20002;-72
2023/05/23 04:50:13;;;;;;;;;;;;;;;-144.99;100.00;52305.41;5047124;28;19929;-72
2023/05/23 04:52:40;;;;;;;;;;;;;;;-144.99;100.00;52264.66;5038533;28;19963;-72
2023/05/23 04:55:08;;;;;;;;;;;;;;;-144.99;100.00;52333.94;5041148;28;19932;-71
2023/05/23 04:57:36;;;;;;;;;;;;;;;-144.99;100.00;52291.16;5052829;28;19932;-71
2023/05/23 05:00:06;;;;;;;;;;;;;;;-144.99;100.00;52272.81;5062754;28;19932;-71
2023/05/23 05:02:34;;;;;;;;;;;;;;;-144.99;100.00;52301.34;5058103;28;20023;-71
2023/05/23 05:05:00;;;;;;;;;;;;;;;-144.99;100.00;52321.72;5053405;28;19951;-72
2023/05/23 05:07:28;;;;;;;;;;;;;;;-144.99;100.00;52272.81;5052459;28;20471;-72
2023/05/23 05:09:54;;;;;;;;;;;;;;;-144.99;100.00;52278.91;5042626;28;19987;-73
2023/05/23 05:12:22;;;;;;;;;;;;;;;-144.99;100.00;52313.56;5047057;28;19928;-66
2023/05/23 05:14:49;;;;;;;;;;;;;;;-144.99;100.00;52285.03;5036687;28;20396;-66
2023/05/23 05:17:17;;;;;;;;;;;;;;;-144.99;100.00;52264.66;5044361;28;19925;-67
2023/05/23 05:19:44;;;;;;;;;;;;;;;-144.99;100.00;52289.13;5037283;28;19933;-67
2023/05/23 05:22:11;;;;;;;;;;;;;;;-144.99;100.00;52270.78;5038255;28;20026;-66
2023/05/23 05:24:39;;;;;;;;;;;;;;;-144.99;100.00;52285.03;5045952;28;19935;-67
2023/05/23 05:27:06;;;;;;;;;;;;;;;-144.99;100.00;52315.59;5038902;28;19929;-67
2023/05/23 05:29:34;;;;;;;;;;;;;;;-144.99;100.00;52305.41;5047332;28;19925;-70
2023/05/23 05:32:02;;;;;;;;;;;;;;;-144.99;100.00;52287.06;4690459;28;9999844;-70
2023/05/23 05:34:28;;;;;;;;;;;;;;;-144.99;100.00;52272.81;5044475;28;20374;-69
2023/05/23 05:36:55;;;;;;;;;;;;;;;-144.99;100.00;52289.13;5045081;28;19944;-69
2023/05/23 05:39:24;;;;;;;;;;;;;;;-144.99;100.00;52329.88;5061594;28;19931;-70
2023/05/23 05:41:51;;;;;;;;;;;;;;;-144.99;100.00;52305.41;5049431;28;19968;-71
2023/05/23 05:44:17;;;;;;;;;;;;;;;-144.99;100.00;52248.34;5040006;28;19929;-71
2023/05/23 05:46:47;;;;;;;;;;;;;;;-144.99;100.00;52285.03;5039684;28;19935;-70
2023/05/23 05:49:13;;;;;;;;;;;;;;;-144.99;100.00;52276.88;5040835;28;20039;-70
2023/05/23 05:51:40;;;;;;;;;;;;;;;-144.99;100.00;52264.66;5042631;28;19929;-71
2023/05/23 05:54:07;;;;;;;;;;;;;;;-144.99;100.00;52285.03;5036310;28;19936;-71
2023/05/23 05:56:34;;;;;;;;;;;;;;;-144.99;100.00;52276.88;5042878;28;20387;-71
2023/05/23 05:59:00;;;;;;;;;;;;;;;-144.99;100.00;52262.63;5040028;28;19929;-70
2023/05/23 06:01:27;;;;;;;;;;;;;;;-144.99;100.00;52280.97;5040692;28;19939;-70
2023/05/23 06:03:55;;;;;;;;;;;;;;;-144.99;100.00;52254.47;5042481;28;20344;-71
2023/05/23 06:06:22;;;;;;;;;;;;;;;-144.99;100.00;52293.19;5044799;28;19948;-71
2023/05/23 06:08:48;;;;;;;;;;;;;;;-144.99;100.00;52293.19;5037617;28;19933;-70
2023/05/23 06:11:15;;;;;;;;;;;;;;;-144.99;100.00;52252.44;5032092;28;20482;-70
2023/05/23 06:13:41;;;;;;;;;;;;;;;-144.99;100.00;52244.28;5043982;28;19940;-71
2023/05/23 06:16:08;;;;;;;;;;;;;;;-144.99;100.00;52276.88;5041808;28;19925;-70
2023/05/23 06:18:35;;;;;;;;;;;;;;;-144.99;100.00;52256.50;5045322;28;20068;-70
2023/05/23 06:21:03;;;;;;;;;;;;;;;-144.99;100.00;52297.25;5038949;28;19940;-70
2023/05/23 06:23:30;;;;;;;;;;;;;;;-144.99;100.00;52293.19;5044513;28;19951;-70
2023/05/23 06:25:56;;;;;;;;;;;;;;;-144.99;100.00;52260.56;5036698;28;20015;-70
2023/05/23 06:28:23;;;;;;;;;;;;;;;-144.99;100.00;52278.91;5039703;28;19924;-70
2023/05/23 06:30:49;;;;;;;;;;;;;;;-144.99;100.00;52260.56;5039379;28;19936;-70
2023/05/23 06:33:16;;;;;;;;;;;;;;;-144.99;100.00;52232.03;5044458;28;19954;-70
2023/05/23 06:35:43;;;;;;;;;;;;;;;-144.99;100.00;52297.25;5042860;28;19925;-70
2023/05/23 06:38:11;;;;;;;;;;;;;;;-144.99;100.00;52272.81;5039471;28;20001;-70
2023/05/23 06:40:38;;;;;;;;;;;;;;;-144.99;100.00;52272.81;5044218;28;20273;-70
2023/05/23 06:43:04;;;;;;;;;;;;;;;-144.99;100.00;52268.72;5044508;28;19935;-70
2023/05/23 06:45:33;;;;;;;;;;;;;;;-144.99;100.00;52293.19;5043960;28;19929;-68
2023/05/23 06:48:00;;;;;;;;;;;;;;;-144.99;100.00;52266.69;5039807;28;19935;-69
2023/05/23 06:50:27;;;;;;;;;;;;;;;-144.99;100.00;52256.50;5047706;28;20180;-69
2023/05/23 06:52:53;;;;;;;;;;;;;;;-144.99;100.00;52285.03;5046821;28;19935;-69
2023/05/23 06:55:22;;;;;;;;;;;;;;;-144.99;100.00;52268.72;5044146;28;19935;-70
2023/05/23 06:57:50;;;;;;;;;;;;;;;-144.99;100.00;52262.63;5041372;28;19929;-70
2023/05/23 07:00:17;;;;;;;;;;;;;;;-144.99;100.00;52303.38;4688202;28;9999788;-70
2023/05/23 07:02:47;;;;;;;;;;;;;;;-144.99;100.00;52280.97;5039748;28;19932;-71
2023/05/23 07:05:13;;;;;;;;;;;;;;;-144.99;100.00;52289.13;5034299;28;19936;-70
2023/05/23 07:07:40;;;;;;;;;;;;;;;-144.99;100.00;52297.25;5034384;28;19929;-70
2023/05/23 07:10:07;;;;;;;;;;;;;;;-144.99;100.00;52297.25;5043106;28;19929;-70
2023/05/23 07:12:35;;;;;;;;;;;;;;;-144.99;100.00;52301.34;5037945;28;20341;-70
2023/05/23 07:15:02;;;;;;;;;;;;;;;-144.99;100.00;52289.13;5042764;28;20413;-70
2023/05/23 07:17:29;;;;;;;;;;;;;;;-144.99;100.00;52309.50;5038761;28;19952;-71
2023/05/23 07:19:56;;;;;;;;;;;;;;;-144.99;100.00;52305.41;5035843;28;19961;-71
2023/05/23 07:22:22;;;;;;;;;;;;;;;-144.99;100.00;52325.81;5035324;28;20196;-70
2023/05/23 07:24:49;;;;;;;;;;;;;;;-144.99;100.00;52311.53;5046666;28;19932;-70
2023/05/23 07:27:16;;;;;;;;;;;;;;;-144.99;100.00;52340.06;5047292;28;20210;-71
2023/05/23 07:29:44;;;;;;;;;;;;;;;-144.99;100.00;52325.81;5048279;28;19928;-70
2023/05/23 07:32:10;;;;;;;;;;;;;;;-144.99;100.00;52321.72;5029972;28;19929;-71
2023/05/23 07:34:37;;;;;;;;;;;;;;;-144.99;100.00;52276.88;5042618;28;19948;-70
2023/05/23 07:37:04;;;;;;;;;;;;;;;-144.99;100.00;52264.66;5041639;28;19994;-70
2023/05/23 07:39:30;;;;;;;;;;;;;;;-144.99;100.00;52321.72;5047263;28;19932;-70
2023/05/23 07:41:57;;;;;;;;;;;;;;;-144.99;100.00;52291.16;5040730;28;19943;-71
2023/05/23 07:44:24;;;;;;;;;;;;;;;-144.99;100.00;52301.34;5047218;28;20309;-70
2023/05/23 07:46:52;;;;;;;;;;;;;;;-144.99;100.00;52305.41;5042424;28;20545;-70
2023/05/23 07:49:18;;;;;;;;;;;;;;;-144.99;100.00;52299.31;5042949;28;19929;-71
2023/05/23 07:51:45;;;;;;;;;;;;;;;-144.99;100.00;52329.88;5042080;28;20306;-71
2023/05/23 07:54:12;;;;;;;;;;;;;;;-144.99;100.00;52321.72;5047127;28;19929;-70
2023/05/23 07:56:39;;;;;;;;;;;;;;;-144.99;100.00;52305.41;5044203;28;19975;-70
2023/05/23 07:59:07;;;;;;;;;;;;;;;-144.99;100.00;52333.94;5033386;28;19932;-69
2023/05/23 08:01:34;;;;;;;;;;;;;;;-144.99;100.00;52301.34;5034041;28;19928;-70
2023/05/23 08:04:02;;;;;;;;;;;;;;;-144.99;100.00;52323.75;5038780;28;19929;-70
2023/05/23 08:06:30;;;;;;;;;;;;;;;-144.99;100.00;52280.97;5035391;28;19928;-70
2023/05/23 08:08:56;;;;;;;;;;;;;;;-144.99;100.00;52301.34;5031679;28;19925;-71
2023/05/23 08:11:23;;;;;;;;;;;;;;;-144.99;100.00;52297.25;5046217;28;19936;-71
2023/05/23 08:13:50;;;;;;;;;;;;;;;-144.99;100.00;52321.72;5046756;28;19929;-70
2023/05/23 08:16:17;;;;;;;;;;;;;;;-144.99;100.00;52329.88;5042882;28;19936;-71
2023/05/23 08:18:43;;;;;;;;;;;;;;;-144.99;100.00;52338.03;5039582;28;19935;-69
2023/05/23 08:21:11;;;;;;;;;;;;;;;-144.99;100.00;52321.72;5039292;28;20387;-70
2023/05/23 08:23:38;;;;;;;;;;;;;;;-144.99;100.00;52289.13;5046776;28;19959;-70
2023/05/23 08:26:06;;;;;;;;;;;;;;;-144.99;100.00;52321.72;5045063;28;20195;-70
2023/05/23 08:28:34;;;;;;;;;;;;;;;-144.99;100.00;52313.56;5049916;28;19961;-69
2023/05/23 08:31:00;;;;;;;;;;;;;;;-144.99;100.00;52350.25;5047466;28;19930;-69
2023/05/23 08:33:27;;;;;;;;;;;;;;;-144.99;100.00;52315.59;5047953;28;19928;-69
2023/05/23 08:35:54;;;;;;;;;;;;;;;-144.99;100.00;52327.84;5044357;28;19936;-70
2023/05/23 08:38:22;;;;;;;;;;;;;;;-144.99;100.00;52346.19;5040732;28;19993;-70
2023/05/23 08:40:50;;;;;;;;;;;;;;;-144.99;100.00;52309.50;5040203;28;19974;-69
2023/05/23 08:43:16;;;;;;;;;;;;;;;-144.99;100.00;52333.94;5040011;28;20008;-69
2023/05/23 08:45:44;;;;;;;;;;;;;;;-144.99;100.00;52362.50;5035508;28;20111;-69
2023/05/23 08:48:12;;;;;;;;;;;;;;;-144.99;100.00;52305.41;5042407;28;19937;-69
2023/05/23 08:50:40;;;;;;;;;;;;;;;-144.99;100.00;52342.09;5045562;28;19929;-69
2023/05/23 08:53:09;;;;;;;;;;;;;;;-144.99;100.00;52309.50;5038593;28;19929;-69
2023/05/23 08:55:37;;;;;;;;;;;;;;;-144.99;100.00;52311.53;5045462;28;19924;-69
2023/05/23 08:58:04;;;;;;;;;;;;;;;-144.99;100.00;52329.88;5045414;28;20453;-69
2023/05/23 09:00:31;;;;;;;;;;;;;;;-144.99;100.00;52362.50;5043410;28;19943;-69
2023/05/23 09:02:58;;;;;;;;;;;;;;;-144.99;100.00;52338.03;5039932;28;19932;-68
2023/05/23 09:05:26;;;;;;;;;;;;;;;-144.99;100.00;52329.88;5039624;28;19924;-68
2023/05/23 09:07:53;;;;;;;;;;;;;;;-144.99;100.00;52321.72;5039197;28;19936;-68
2023/05/23 09:10:20;;;;;;;;;;;;;;;-144.99;100.00;52350.25;5040179;28;20015;-68
2023/05/23 09:12:50;;;;;;;;;;;;;;;-144.99;100.00;52346.19;5042023;28;19928;-69
2023/05/23 09:15:17;;;;;;;;;;;;;;;-144.99;100.00;52350.25;5043045;28;19929;-69
2023/05/23 09:17:44;;;;;;;;;;;;;;;-144.99;100.00;52280.97;5041891;28;20006;-70
2023/05/23 09:20:12;;;;;;;;;;;;;;;-144.99;100.00;52329.88;5041417;28;20579;-70
2023/05/23 09:22:39;;;;;;;;;;;;;;;-144.99;100.00;52329.88;5046270;28;19964;-70
2023/05/23 09:25:07;;;;;;;;;;;;;;;-144.99;100.00;52323.75;5042433;28;20322;-70
2023/05/23 09:27:34;;;;;;;;;;;;;;;-144.99;100.00;52325.81;5062382;22;19928;-72
2023/05/23 09:30:07;;;;;;;;;;;;;;;-144.99;100.00;52321.72;5015207;28;20062;-72
2023/05/23 09:32:34;;;;;;;;;;;;;;;-144.99;100.00;52317.66;5008041;28;19929;-72
2023/05/23 09:35:02;;;;;;;;;;;;;;;-144.99;100.00;52319.69;5009459;28;20020;-72
2023/05/23 09:37:31;;;;;;;;;;;;;;;-144.99;100.00;52309.50;5008357;28;19929;-72
2023/05/23 09:39:59;;;;;;;;;;;;;;;-144.99;100.00;52356.38;5008127;28;19995;-72
2023/05/23 09:42:25;;;;;;;;;;;;;;;-144.99;100.00;52329.88;5003324;28;20029;-73
2023/05/23 09:44:53;;;;;;;;;;;;;;;-144.99;100.00;52327.84;5001765;28;20208;-73
2023/05/23 09:47:21;;;;;;;;;;;;;;;-144.99;100.00;52317.66;4995598;28;19926;-74
2023/05/23 09:49:50;;;;;;;;;;;;;;;-144.99;100.00;52313.56;5000333;28;19967;-74
2023/05/23 09:52:18;;;;;;;;;;;;;;;-144.99;100.00;52309.50;5001909;28;19927;-74
2023/05/23 09:54:46;;;;;;;;;;;;;;;-144.99;100.00;52342.09;5002814;28;19952;-74
2023/05/23 09:57:14;;;;;;;;;;;;;;;-144.99;100.00;52348.22;5004079;28;19988;-73
2023/05/23 09:59:42;;;;;;;;;;;;;;;-144.99;100.00;52309.50;4995763;28;19940;-73
2023/05/23 10:02:11;;;;;;;;;;;;;;;-144.99;100.00;52321.72;4996907;28;19932;-72
2023/05/23 10:04:40;;;;;;;;;;;;;;;-144.99;100.00;52280.97;5002693;28;19960;-72
2023/05/23 10:07:15;;;;;;;;;;;;;;;-144.99;100.00;52350.25;5007248;28;19926;-72
2023/05/23 10:09:42;;;;;;;;;;;;;;;-144.99;99.32;52289.13;5001857;28;20656;-71
2023/05/23 10:12:29;;;;;;;;;;;;;;;-144.99;98.40;52309.50;4998641;28;19944;-72
2023/05/23 10:14:58;;;;;;;;;;;;;;;-144.99;98.00;52348.22;5010737;28;19933;-72
2023/05/23 10:17:29;;;;;;;;;;;;;;;-144.99;97.41;52344.16;5001974;28;19940;-72
2023/05/23 10:20:01;;;;;;;;;;;;;;;-144.99;97.35;52329.88;4996903;28;20398;-72
2023/05/23 10:22:28;;;;;;;;;;;;;;;-144.99;95.91;52313.56;5003831;28;20016;-72
2023/05/23 10:24:55;;;;;;;;;;;;;;;-144.99;95.26;52305.41;4998495;28;19953;-72
2023/05/23 10:27:22;;;;;;;;;;;;;;;-144.99;94.41;52297.25;5005322;28;19929;-72
2023/05/23 10:29:49;;;;;;;;;;;;;;;-144.99;93.26;52276.88;4998228;28;20096;-72
2023/05/23 10:32:16;;;;;;;;;;;;;;;-144.99;92.19;52264.66;4995271;28;19926;-71
2023/05/23 10:34:47;;;;;;;;;;;;;;;-144.99;89.15;52299.31;5002507;28;20378;-72
2023/05/23 10:37:20;;;;;;;;;;;;;;;-144.99;88.16;52297.25;5004777;28;19933;-72
2023/05/23 10:39:52;;;;;;;;;;;;;;;-144.99;88.38;52305.41;4998706;28;19926;-72
2023/05/23 10:42:24;;;;;;;;;;;;;;;-144.99;88.19;52301.34;5004150;28;19925;-72
2023/05/23 10:44:51;;;;;;;;;;;;;;;-144.99;86.72;52301.34;5000412;28;19925;-72
2023/05/23 10:47:26;;;;;;;;;;;;;;;-144.99;84.55;52299.31;5002306;28;19929;-72
2023/05/23 10:49:54;;;;;;;;;;;;;;;-144.99;83.27;52297.25;4995135;28;20184;-72
2023/05/23 10:52:25;;;;;;;;;;;;;;;-144.99;83.48;52309.50;4995319;28;19926;-72
2023/05/23 10:54:52;;;;;;;;;;;;;;;-144.99;84.30;52283.00;4998339;28;19926;-72
2023/05/23 10:57:20;;;;;;;;;;;;;;;-144.99;83.77;52338.03;5009575;28;19933;-72
2023/05/23 10:59:47;;;;;;;;;;;;;;;-144.99;83.76;52317.66;4996007;28;19937;-71
2023/05/23 11:02:14;;;;;;;;;;;;;;;-144.99;82.94;52301.34;5001099;28;20363;-71
2023/05/23 11:04:41;;;;;;;;;;;;;;;-144.99;82.56;52280.97;5005697;28;19933;-71
2023/05/23 11:07:28;;;;;;;;;;;;;;;-144.99;82.86;52268.72;4995083;28;19949;-71
2023/05/23 11:10:08;;;;;;;;;;;;;;;-144.99;81.14;52276.88;4997083;28;20342;-71
2023/05/23 11:12:39;;;;;;;;;;;;;;;-144.99;79.05;52264.66;5005016;28;20361;-72
2023/05/23 11:15:19;;;;;;;;;;;;;;;-144.99;78.80;52211.66;5002258;28;19934;-72
2023/05/23 11:17:50;;;;;;;;;;;;;;;-144.99;78.68;52260.56;5005482;28;19972;-72
2023/05/23 11:20:22;;;;;;;;;;;;;;;-144.99;77.28;52258.53;5006124;28;19925;-72
2023/05/23 11:22:54;;;;;;;;;;;;;;;-144.99;75.92;52260.56;5004476;28;19930;-72
2023/05/23 11:25:39;;;;;;;;;;;;;;;-144.99;75.21;52283.00;5000155;28;20035;-72
2023/05/23 11:28:06;;;;;;;;;;;;;;;-144.99;75.05;52244.28;5001223;28;19984;-72
2023/05/23 11:30:33;;;;;;;;;;;;;;;-144.99;75.66;52248.34;5008003;28;20400;-72
2023/05/23 11:32:59;;;;;;;;;;;;;;;-144.99;75.22;52276.88;5009997;28;19952;-72
2023/05/23 11:35:26;;;;;;;;;;;;;;;-144.99;73.25;52215.75;4998560;28;20014;-72
2023/05/23 11:37:53;;;;;;;;;;;;;;;-144.99;72.94;52236.13;5005276;28;20318;-72
2023/05/23 11:40:29;;;;;;;;;;;;;;;-144.99;72.33;52252.44;5003678;28;20448;-72
2023/05/23 11:42:55;;;;;;;;;;;;;;;-144.99;72.07;52256.50;4999965;28;20455;-72
2023/05/23 11:45:22;;;;;;;;;;;;;;;-144.99;72.17;52179.06;5001949;28;20309;-72
2023/05/23 11:47:49;;;;;;;;;;;;;;;-144.99;71.15;52209.63;4996076;28;19941;-72
2023/05/23 11:50:16;;;;;;;;;;;;;;;-144.99;70.55;52211.66;5005074;28;20394;-72
2023/05/23 11:52:43;;;;;;;;;;;;;;;-144.99;70.35;52142.38;5004451;28;19933;-71
2023/05/23 11:55:10;;;;;;;;;;;;;;;-144.99;69.84;52215.75;4993690;28;19980;-71
2023/05/23 11:57:39;;;;;;;;;;;;;;;-144.99;69.34;52142.38;4993443;28;19936;-72
2023/05/23 12:00:07;;;;;;;;;;;;;;;-144.99;69.87;52170.91;4995809;28;20453;-71
2023/05/23 12:02:38;;;;;;;;;;;;;;;-144.99;69.94;52183.13;5000270;28;19929;-72
2023/05/23 12:05:07;;;;;;;;;;;;;;;-144.99;70.08;52248.34;5002782;28;19933;-72
2023/05/23 12:07:35;;;;;;;;;;;;;;;-144.99;70.14;52219.81;5007472;28;19929;-72
2023/05/23 12:10:02;;;;;;;;;;;;;;;-144.99;70.22;52215.75;5000792;28;20004;-72
2023/05/23 12:12:29;;;;;;;;;;;;;;;-144.99;69.29;52183.13;5009020;28;20342;-72
2023/05/23 12:14:57;;;;;;;;;;;;;;;-144.99;69.13;52240.19;4997208;28;20347;-72
2023/05/23 12:17:24;;;;;;;;;;;;;;;-144.99;69.03;52227.97;5000860;28;20380;-72
2023/05/23 12:19:52;;;;;;;;;;;;;;;-144.99;69.21;52248.34;5008500;28;20353;-72
2023/05/23 12:22:23;;;;;;;;;;;;;;;-144.99;69.46;52252.44;5001708;28;19944;-72